createdAt,value
2024-02-23T00:00:28.382Z,0.00
2024-02-23T00:01:28.293Z,0.00
2024-02-23T00:02:28.356Z,0.00
2024-02-23T00:03:28.228Z,0.00
2024-02-23T00:04:28.492Z,0.00
2024-02-23T00:05:28.353Z,0.00
2024-02-23T00:06:28.279Z,0.00
2024-02-23T00:07:28.310Z,0.00
2024-02-23T00:08:28.239Z,0.00
2024-02-23T00:09:28.355Z,0.00
2024-02-23T00:10:28.251Z,0.00
2024-02-23T00:11:28.462Z,0.00
2024-02-23T00:12:28.890Z,0.00
2024-02-23T00:13:28.286Z,0.00
2024-02-23T00:14:28.290Z,0.00
2024-02-23T00:15:28.239Z,0.00
2024-02-23T00:16:28.168Z,0.00
2024-02-23T00:17:28.250Z,0.00
2024-02-23T00:18:28.207Z,0.00
2024-02-23T00:19:28.243Z,0.00
2024-02-23T00:20:28.122Z,0.00
2024-02-23T00:21:28.137Z,0.00
2024-02-23T00:22:28.784Z,0.00
2024-02-23T00:23:28.357Z,0.00
2024-02-23T00:24:28.225Z,0.00
2024-02-23T00:25:28.046Z,0.00
2024-02-23T00:26:28.192Z,0.00
2024-02-23T00:27:28.492Z,0.00
2024-02-23T00:28:27.962Z,0.00
2024-02-23T00:29:28.132Z,0.00
2024-02-23T00:30:28.900Z,0.00
2024-02-23T00:31:27.968Z,0.00
2024-02-23T00:32:28.340Z,0.00
2024-02-23T00:33:28.105Z,0.00
2024-02-23T00:34:28.009Z,0.00
2024-02-23T00:35:28.086Z,0.00
2024-02-23T00:36:27.947Z,0.00
2024-02-23T00:37:28.111Z,0.00
2024-02-23T00:38:27.939Z,0.00
2024-02-23T00:39:28.689Z,0.00
2024-02-23T00:40:27.848Z,0.00
2024-02-23T00:41:27.951Z,0.00
2024-02-23T00:42:27.899Z,0.00
2024-02-23T00:43:27.894Z,0.00
2024-02-23T00:44:28.801Z,0.00
2024-02-23T00:45:28.117Z,0.00
2024-02-23T00:46:27.898Z,0.00
2024-02-23T00:47:28.079Z,0.00
2024-02-23T00:48:27.953Z,0.00
2024-02-23T00:49:27.743Z,0.00
2024-02-23T00:50:27.831Z,0.00
2024-02-23T00:51:27.892Z,0.00
2024-02-23T00:52:27.817Z,0.00
2024-02-23T00:53:28.792Z,0.00
2024-02-23T00:54:27.834Z,0.00
2024-02-23T00:55:29.737Z,0.00
2024-02-23T00:56:35.773Z,0.00
2024-02-23T00:57:30.000Z,0.00
2024-02-23T00:58:27.886Z,0.00
2024-02-23T00:59:27.906Z,0.00
2024-02-23T01:00:27.633Z,0.00
2024-02-23T01:01:27.993Z,0.00
2024-02-23T01:02:27.641Z,0.00
2024-02-23T01:03:27.859Z,0.00
2024-02-23T01:04:27.835Z,0.00
2024-02-23T01:05:27.881Z,0.00
2024-02-23T01:06:27.710Z,0.00
2024-02-23T01:07:28.855Z,0.00
2024-02-23T01:08:28.306Z,0.00
2024-02-23T01:09:27.604Z,0.00
2024-02-23T01:10:28.014Z,0.00
2024-02-23T01:11:27.683Z,0.00
2024-02-23T01:12:27.691Z,0.00
2024-02-23T01:13:27.536Z,0.00
2024-02-23T01:14:28.408Z,0.00
2024-02-23T01:15:27.865Z,0.00
2024-02-23T01:16:28.231Z,0.00
2024-02-23T01:17:27.595Z,0.00
2024-02-23T01:18:27.510Z,0.00
2024-02-23T01:19:27.610Z,0.00
2024-02-23T01:20:27.620Z,0.00
2024-02-23T01:21:27.635Z,0.00
2024-02-23T01:22:28.305Z,0.00
2024-02-23T01:23:28.699Z,0.00
2024-02-23T01:24:27.366Z,0.00
2024-02-23T01:25:27.710Z,0.00
2024-02-23T01:26:27.491Z,0.00
2024-02-23T01:27:27.541Z,0.00
2024-02-23T01:28:27.472Z,0.00
2024-02-23T01:29:27.767Z,0.00
2024-02-23T01:30:27.359Z,0.00
2024-02-23T01:31:27.429Z,0.00
2024-02-23T01:32:27.425Z,0.00
2024-02-23T01:33:27.662Z,0.00
2024-02-23T01:34:27.415Z,0.00
2024-02-23T01:35:28.085Z,0.00
2024-02-23T01:36:27.294Z,0.00
2024-02-23T01:37:29.007Z,0.00
2024-02-23T01:38:29.186Z,0.00
2024-02-23T01:39:27.315Z,0.00
2024-02-23T01:40:27.942Z,0.00
2024-02-23T01:41:27.438Z,0.00
2024-02-23T01:42:27.236Z,0.00
2024-02-23T01:43:27.174Z,0.00
2024-02-23T01:44:27.290Z,0.00
2024-02-23T01:45:27.314Z,0.00
2024-02-23T01:46:27.326Z,0.00
2024-02-23T01:47:27.353Z,0.00
2024-02-23T01:48:27.328Z,0.00
2024-02-23T01:49:27.335Z,0.00
2024-02-23T01:50:27.186Z,0.00
2024-02-23T01:51:27.271Z,0.00
2024-02-23T01:52:27.144Z,0.00
2024-02-23T01:53:27.696Z,0.00
2024-02-23T01:54:27.145Z,0.00
2024-02-23T01:55:27.215Z,0.00
2024-02-23T01:56:27.243Z,0.00
2024-02-23T01:57:40.181Z,0.00
2024-02-23T01:58:27.231Z,0.00
2024-02-23T01:59:26.996Z,0.00
2024-02-23T02:00:27.228Z,0.00
2024-02-23T02:01:27.086Z,0.00
2024-02-23T02:02:27.897Z,0.00
2024-02-23T02:03:26.963Z,0.00
2024-02-23T02:04:27.056Z,0.00
2024-02-23T02:05:27.114Z,0.00
2024-02-23T02:06:27.298Z,0.00
2024-02-23T02:07:27.099Z,0.00
2024-02-23T02:08:27.038Z,0.00
2024-02-23T02:09:27.071Z,0.00
2024-02-23T02:10:27.466Z,0.00
2024-02-23T02:11:27.103Z,0.00
2024-02-23T02:12:26.928Z,0.00
2024-02-23T02:13:28.182Z,0.00
2024-02-23T02:14:27.571Z,0.00
2024-02-23T02:15:26.854Z,0.00
2024-02-23T02:16:26.944Z,0.00
2024-02-23T02:17:26.910Z,0.00
2024-02-23T02:18:27.589Z,0.00
2024-02-23T02:19:26.954Z,0.00
2024-02-23T02:20:27.037Z,0.00
2024-02-23T02:21:26.816Z,0.00
2024-02-23T02:22:27.056Z,0.00
2024-02-23T02:23:27.728Z,0.00
2024-02-23T02:24:27.050Z,0.00
2024-02-23T02:25:26.789Z,0.00
2024-02-23T02:26:26.776Z,0.00
2024-02-23T02:27:26.850Z,0.00
2024-02-23T02:28:26.698Z,0.00
2024-02-23T02:29:26.844Z,0.00
2024-02-23T02:30:27.456Z,0.00
2024-02-23T02:31:26.677Z,0.00
2024-02-23T02:32:26.769Z,0.00
2024-02-23T02:33:26.719Z,0.00
2024-02-23T02:34:26.793Z,0.00
2024-02-23T02:35:27.290Z,0.00
2024-02-23T02:36:27.521Z,0.00
2024-02-23T02:37:26.681Z,0.00
2024-02-23T02:38:26.739Z,0.00
2024-02-23T02:39:26.662Z,0.00
2024-02-23T02:40:26.658Z,0.00
2024-02-23T02:41:28.231Z,0.00
2024-02-23T02:42:27.985Z,0.00
2024-02-23T02:43:26.512Z,0.00
2024-02-23T02:44:26.604Z,0.00
2024-02-23T02:45:26.524Z,0.00
2024-02-23T02:46:26.698Z,0.00
2024-02-23T02:47:26.665Z,0.00
2024-02-23T02:48:26.633Z,0.00
2024-02-23T02:49:26.488Z,0.00
2024-02-23T02:50:26.946Z,0.00
2024-02-23T02:51:26.494Z,0.00
2024-02-23T02:52:26.496Z,0.00
2024-02-23T02:53:26.598Z,0.00
2024-02-23T02:54:26.422Z,0.00
2024-02-23T02:55:26.450Z,0.00
2024-02-23T02:56:26.614Z,0.00
2024-02-23T02:57:27.383Z,0.00
2024-02-23T02:58:26.378Z,0.00
2024-02-23T02:59:28.608Z,0.00
2024-02-23T03:00:26.397Z,0.00
2024-02-23T03:01:26.527Z,0.00
2024-02-23T03:02:26.671Z,0.00
2024-02-23T03:03:26.384Z,0.00
2024-02-23T03:04:26.382Z,0.00
2024-02-23T03:05:26.571Z,0.00
2024-02-23T03:06:26.320Z,0.00
2024-02-23T03:07:26.338Z,0.00
2024-02-23T03:08:26.855Z,0.00
2024-02-23T03:09:26.415Z,0.00
2024-02-23T03:10:26.436Z,0.00
2024-02-23T03:11:26.537Z,0.00
2024-02-23T03:12:26.266Z,0.00
2024-02-23T03:13:26.306Z,0.00
2024-02-23T03:14:26.483Z,0.00
2024-02-23T03:15:26.310Z,0.00
2024-02-23T03:16:26.530Z,0.00
2024-02-23T03:17:27.235Z,0.00
2024-02-23T03:18:26.891Z,0.00
2024-02-23T03:19:26.253Z,0.00
2024-02-23T03:20:26.326Z,0.00
2024-02-23T03:21:26.369Z,0.00
2024-02-23T03:22:26.675Z,0.00
2024-02-23T03:23:26.295Z,0.00
2024-02-23T03:24:26.101Z,0.00
2024-02-23T03:25:27.118Z,0.00
2024-02-23T03:26:26.163Z,0.00
2024-02-23T03:27:26.138Z,0.00
2024-02-23T03:28:26.215Z,0.00
2024-02-23T03:29:26.199Z,0.00
2024-02-23T03:30:26.063Z,0.00
2024-02-23T03:31:26.055Z,0.00
2024-02-23T03:32:26.111Z,0.00
2024-02-23T03:33:26.231Z,0.00
2024-02-23T03:34:26.358Z,0.00
2024-02-23T03:35:26.165Z,0.00
2024-02-23T03:36:26.069Z,0.00
2024-02-23T03:37:25.966Z,0.00
2024-02-23T03:38:27.025Z,0.00
2024-02-23T03:39:25.977Z,0.00
2024-02-23T03:40:26.385Z,0.00
2024-02-23T03:41:26.215Z,0.00
2024-02-23T03:42:25.936Z,0.00
2024-02-23T03:43:25.986Z,0.00
2024-02-23T03:44:26.145Z,0.00
2024-02-23T03:45:25.926Z,0.00
2024-02-23T03:46:26.133Z,0.00
2024-02-23T03:47:26.605Z,0.00
2024-02-23T03:48:25.892Z,0.00
2024-02-23T03:49:25.801Z,0.00
2024-02-23T03:50:25.947Z,0.00
2024-02-23T03:51:25.904Z,0.00
2024-02-23T03:52:25.903Z,0.00
2024-02-23T03:53:25.814Z,0.00
2024-02-23T03:54:25.758Z,0.00
2024-02-23T03:55:25.903Z,0.00
2024-02-23T03:56:25.915Z,0.00
2024-02-23T03:57:25.844Z,0.00
2024-02-23T03:58:25.823Z,0.00
2024-02-23T03:59:25.856Z,0.00
2024-02-23T04:00:26.526Z,0.00
2024-02-23T04:01:25.761Z,0.00
2024-02-23T04:02:25.796Z,0.00
2024-02-23T04:03:26.065Z,0.00
2024-02-23T04:04:25.882Z,0.00
2024-02-23T04:05:25.857Z,0.00
2024-02-23T04:06:25.851Z,0.00
2024-02-23T04:07:25.880Z,0.00
2024-02-23T04:08:25.703Z,0.00
2024-02-23T04:09:25.680Z,0.00
2024-02-23T04:10:25.804Z,0.00
2024-02-23T04:11:25.912Z,0.00
2024-02-23T04:12:25.819Z,0.00
2024-02-23T04:13:25.625Z,0.00
2024-02-23T04:14:26.431Z,0.00
2024-02-23T04:15:25.635Z,0.00
2024-02-23T04:16:25.573Z,0.00
2024-02-23T04:17:26.456Z,0.00
2024-02-23T04:18:25.586Z,0.00
2024-02-23T04:19:25.779Z,0.00
2024-02-23T04:20:25.579Z,0.00
2024-02-23T04:21:25.557Z,0.00
2024-02-23T04:22:25.520Z,0.00
2024-02-23T04:23:25.677Z,0.00
2024-02-23T04:24:27.034Z,0.00
2024-02-23T04:25:25.447Z,0.00
2024-02-23T04:26:25.737Z,0.00
2024-02-23T04:27:25.560Z,0.00
2024-02-23T04:28:25.529Z,0.00
2024-02-23T04:29:25.503Z,0.00
2024-02-23T04:30:25.378Z,0.00
2024-02-23T04:31:25.474Z,0.00
2024-02-23T04:32:25.470Z,0.00
2024-02-23T04:33:26.041Z,0.00
2024-02-23T04:34:25.402Z,0.00
2024-02-23T04:35:25.436Z,0.00
2024-02-23T04:36:25.479Z,0.00
2024-02-23T04:37:25.401Z,0.00
2024-02-23T04:38:25.320Z,0.00
2024-02-23T04:39:25.541Z,0.00
2024-02-23T04:40:25.421Z,0.00
2024-02-23T04:41:25.542Z,0.00
2024-02-23T04:42:25.233Z,0.00
2024-02-23T04:43:25.390Z,0.00
2024-02-23T04:44:25.376Z,0.00
2024-02-23T04:45:25.328Z,0.00
2024-02-23T04:46:25.364Z,0.00
2024-02-23T04:47:25.581Z,0.00
2024-02-23T04:48:25.284Z,0.00
2024-02-23T04:49:25.588Z,0.00
2024-02-23T04:50:25.317Z,0.00
2024-02-23T04:51:25.606Z,0.00
2024-02-23T04:52:26.151Z,0.00
2024-02-23T04:53:25.373Z,0.00
2024-02-23T04:54:25.361Z,0.00
2024-02-23T04:55:25.353Z,0.00
2024-02-23T04:56:25.247Z,0.00
2024-02-23T04:57:25.292Z,0.00
2024-02-23T04:58:25.782Z,0.00
2024-02-23T04:59:25.222Z,0.00
2024-02-23T05:00:25.103Z,0.00
2024-02-23T05:01:25.751Z,0.00
2024-02-23T05:02:25.165Z,0.00
2024-02-23T05:03:25.066Z,0.00
2024-02-23T05:04:25.231Z,0.00
2024-02-23T05:05:25.048Z,0.00
2024-02-23T05:06:25.078Z,0.00
2024-02-23T05:07:25.247Z,0.00
2024-02-23T05:08:25.055Z,0.00
2024-02-23T05:09:24.993Z,0.00
2024-02-23T05:10:25.184Z,0.00
2024-02-23T05:11:25.047Z,0.00
2024-02-23T05:12:25.054Z,0.00
2024-02-23T05:13:24.999Z,0.00
2024-02-23T05:14:25.153Z,0.00
2024-02-23T05:15:24.991Z,0.00
2024-02-23T05:16:25.483Z,0.00
2024-02-23T05:17:25.013Z,0.00
2024-02-23T05:18:24.958Z,0.00
2024-02-23T05:19:24.972Z,0.00
2024-02-23T05:20:25.383Z,0.00
2024-02-23T05:21:24.872Z,0.00
2024-02-23T05:22:24.968Z,0.00
2024-02-23T05:23:24.903Z,0.00
2024-02-23T05:24:24.917Z,0.00
2024-02-23T05:25:24.834Z,0.00
2024-02-23T05:26:24.932Z,0.00
2024-02-23T05:27:24.974Z,0.00
2024-02-23T05:28:24.965Z,0.00
2024-02-23T05:29:24.893Z,0.00
2024-02-23T05:30:24.956Z,0.00
2024-02-23T05:31:24.922Z,0.00
2024-02-23T05:32:24.873Z,0.00
2024-02-23T05:33:25.201Z,0.00
2024-02-23T05:34:24.868Z,0.00
2024-02-23T05:35:24.815Z,0.00
2024-02-23T05:36:24.893Z,0.00
2024-02-23T05:37:24.783Z,0.00
2024-02-23T05:38:24.680Z,0.00
2024-02-23T05:39:24.692Z,0.00
2024-02-23T05:40:24.605Z,0.00
2024-02-23T05:41:24.827Z,0.00
2024-02-23T05:42:24.882Z,0.00
2024-02-23T05:43:24.604Z,0.00
2024-02-23T05:44:24.727Z,0.00
2024-02-23T05:45:24.891Z,0.00
2024-02-23T05:46:24.656Z,0.00
2024-02-23T05:47:24.776Z,0.00
2024-02-23T05:48:25.531Z,0.00
2024-02-23T05:49:24.559Z,0.00
2024-02-23T05:50:24.684Z,0.00
2024-02-23T05:51:25.437Z,0.00
2024-02-23T05:52:24.736Z,0.00
2024-02-23T05:53:24.739Z,0.00
2024-02-23T05:54:24.724Z,0.00
2024-02-23T05:55:24.530Z,0.00
2024-02-23T05:56:24.775Z,0.00
2024-02-23T05:57:24.630Z,0.00
2024-02-23T05:58:24.449Z,0.00
2024-02-23T05:59:24.648Z,0.00
2024-02-23T06:00:24.469Z,0.00
2024-02-23T06:01:24.516Z,0.00
2024-02-23T06:02:25.208Z,0.00
2024-02-23T06:03:24.484Z,0.00
2024-02-23T06:04:24.407Z,0.00
2024-02-23T06:05:25.918Z,0.00
2024-02-23T06:06:24.724Z,0.00
2024-02-23T06:07:24.346Z,0.00
2024-02-23T06:08:24.369Z,5.62
2024-02-23T06:09:24.365Z,5.62
2024-02-23T06:10:24.261Z,5.62
2024-02-23T06:11:24.430Z,5.62
2024-02-23T06:12:24.296Z,5.62
2024-02-23T06:13:24.954Z,5.62
2024-02-23T06:14:24.268Z,5.62
2024-02-23T06:15:24.239Z,5.62
2024-02-23T06:16:24.506Z,11.25
2024-02-23T06:17:24.264Z,11.25
2024-02-23T06:18:24.382Z,11.25
2024-02-23T06:19:24.313Z,11.25
2024-02-23T06:20:25.293Z,11.25
2024-02-23T06:21:24.523Z,11.25
2024-02-23T06:22:24.310Z,16.88
2024-02-23T06:23:24.442Z,16.88
2024-02-23T06:24:24.179Z,16.88
2024-02-23T06:25:24.272Z,16.88
2024-02-23T06:26:24.138Z,22.50
2024-02-23T06:27:24.282Z,22.50
2024-02-23T06:28:24.053Z,22.50
2024-02-23T06:29:24.532Z,28.12
2024-02-23T06:30:24.168Z,33.75
2024-02-23T06:31:24.074Z,33.75
2024-02-23T06:32:24.259Z,39.38
2024-02-23T06:33:24.211Z,39.38
2024-02-23T06:34:24.050Z,39.38
2024-02-23T06:35:24.076Z,39.38
2024-02-23T06:36:24.031Z,39.38
2024-02-23T06:37:24.132Z,39.38
2024-02-23T06:38:26.939Z,39.38
2024-02-23T06:39:24.001Z,39.38
2024-02-23T06:40:25.324Z,45.00
2024-02-23T06:41:23.979Z,45.00
2024-02-23T06:42:23.978Z,50.62
2024-02-23T06:43:23.970Z,50.62
2024-02-23T06:44:24.099Z,50.62
2024-02-23T06:45:24.104Z,56.25
2024-02-23T06:46:23.907Z,61.88
2024-02-23T06:47:23.945Z,61.88
2024-02-23T06:48:24.993Z,61.88
2024-02-23T06:49:24.250Z,61.88
2024-02-23T06:50:24.081Z,67.50
2024-02-23T06:51:23.897Z,67.50
2024-02-23T06:52:24.354Z,67.50
2024-02-23T06:53:25.471Z,67.50
2024-02-23T06:54:24.808Z,67.50
2024-02-23T06:55:24.366Z,73.12
2024-02-23T06:56:23.930Z,78.75
2024-02-23T06:57:23.991Z,84.38
2024-02-23T06:58:23.883Z,84.38
2024-02-23T06:59:24.066Z,78.75
2024-02-23T07:00:23.804Z,73.12
2024-02-23T07:01:23.841Z,78.75
2024-02-23T07:02:23.813Z,73.12
2024-02-23T07:03:23.722Z,73.12
2024-02-23T07:04:23.870Z,73.12
2024-02-23T07:05:24.056Z,73.12
2024-02-23T07:06:24.249Z,73.12
2024-02-23T07:07:27.282Z,73.12
2024-02-23T07:08:24.010Z,67.50
2024-02-23T07:09:23.691Z,67.50
2024-02-23T07:10:23.787Z,73.12
2024-02-23T07:11:23.752Z,73.12
2024-02-23T07:12:23.752Z,78.75
2024-02-23T07:13:23.773Z,78.75
2024-02-23T07:14:23.781Z,84.38
2024-02-23T07:15:24.187Z,84.38
2024-02-23T07:16:23.616Z,84.38
2024-02-23T07:17:24.306Z,84.38
2024-02-23T07:18:24.985Z,90.00
2024-02-23T07:19:25.195Z,90.00
2024-02-23T07:20:23.555Z,95.62
2024-02-23T07:21:24.074Z,95.62
2024-02-23T07:22:23.679Z,95.62
2024-02-23T07:23:23.919Z,95.62
2024-02-23T07:24:23.530Z,101.25
2024-02-23T07:25:23.451Z,101.25
2024-02-23T07:26:23.648Z,101.25
2024-02-23T07:27:23.441Z,101.25
2024-02-23T07:28:24.367Z,101.25
2024-02-23T07:29:23.494Z,101.25
2024-02-23T07:30:23.602Z,101.25
2024-02-23T07:31:24.258Z,101.25
2024-02-23T07:32:24.393Z,101.25
2024-02-23T07:33:23.487Z,106.88
2024-02-23T07:34:23.508Z,112.50
2024-02-23T07:35:23.711Z,118.12
2024-02-23T07:36:23.361Z,118.12
2024-02-23T07:37:24.238Z,123.75
2024-02-23T07:38:23.771Z,123.75
2024-02-23T07:39:23.497Z,129.38
2024-02-23T07:40:23.620Z,135.00
2024-02-23T07:41:23.855Z,135.00
2024-02-23T07:42:23.239Z,135.00
2024-02-23T07:43:24.286Z,146.25
2024-02-23T07:44:23.430Z,140.62
2024-02-23T07:45:23.321Z,135.00
2024-02-23T07:46:25.090Z,135.00
2024-02-23T07:47:23.545Z,140.62
2024-02-23T07:48:23.440Z,140.62
2024-02-23T07:49:23.259Z,135.00
2024-02-23T07:50:23.246Z,146.25
2024-02-23T07:51:23.871Z,151.88
2024-02-23T07:52:23.977Z,151.88
2024-02-23T07:53:23.487Z,146.25
2024-02-23T07:54:23.458Z,151.88
2024-02-23T07:55:23.162Z,157.50
2024-02-23T07:56:23.330Z,157.50
2024-02-23T07:57:23.832Z,163.12
2024-02-23T07:58:23.163Z,157.50
2024-02-23T07:59:23.263Z,151.88
2024-02-23T08:00:25.919Z,157.50
2024-02-23T08:01:23.178Z,163.12
2024-02-23T08:02:23.129Z,163.12
2024-02-23T08:03:23.056Z,168.75
2024-02-23T08:04:23.880Z,180.00
2024-02-23T08:05:23.146Z,180.00
2024-02-23T08:06:23.085Z,180.00
2024-02-23T08:07:23.020Z,180.00
2024-02-23T08:08:23.039Z,185.62
2024-02-23T08:09:23.056Z,180.00
2024-02-23T08:10:23.019Z,180.00
2024-02-23T08:11:23.297Z,191.25
2024-02-23T08:12:23.024Z,180.00
2024-02-23T08:13:23.042Z,180.00
2024-02-23T08:14:23.230Z,180.00
2024-02-23T08:15:22.956Z,174.38
2024-02-23T08:16:22.899Z,174.38
2024-02-23T08:17:23.110Z,174.38
2024-02-23T08:18:25.146Z,174.38
2024-02-23T08:19:23.025Z,168.75
2024-02-23T08:20:22.927Z,174.38
2024-02-23T08:21:22.969Z,174.38
2024-02-23T08:22:22.959Z,174.38
2024-02-23T08:23:22.888Z,180.00
2024-02-23T08:24:23.193Z,180.00
2024-02-23T08:25:22.879Z,185.62
2024-02-23T08:26:23.701Z,185.62
2024-02-23T08:27:22.886Z,185.62
2024-02-23T08:28:22.924Z,185.62
2024-02-23T08:29:24.142Z,191.25
2024-02-23T08:30:22.809Z,191.25
2024-02-23T08:31:22.806Z,196.88
2024-02-23T08:32:22.762Z,196.88
2024-02-23T08:33:22.733Z,202.50
2024-02-23T08:34:23.446Z,202.50
2024-02-23T08:35:22.830Z,202.50
2024-02-23T08:36:22.855Z,202.50
2024-02-23T08:37:22.737Z,208.12
2024-02-23T08:38:22.994Z,208.12
2024-02-23T08:39:22.819Z,213.75
2024-02-23T08:40:22.890Z,213.75
2024-02-23T08:41:22.746Z,213.75
2024-02-23T08:42:23.621Z,213.75
2024-02-23T08:43:22.699Z,213.75
2024-02-23T08:44:22.875Z,213.75
2024-02-23T08:45:22.619Z,219.38
2024-02-23T08:46:22.637Z,213.75
2024-02-23T08:47:22.662Z,219.38
2024-02-23T08:48:22.866Z,225.00
2024-02-23T08:49:22.678Z,230.62
2024-02-23T08:50:22.859Z,241.88
2024-02-23T08:51:23.416Z,236.25
2024-02-23T08:52:22.659Z,241.88
2024-02-23T08:53:22.555Z,253.12
2024-02-23T08:54:22.543Z,258.75
2024-02-23T08:55:22.488Z,258.75
2024-02-23T08:56:22.648Z,258.75
2024-02-23T08:57:22.684Z,258.75
2024-02-23T08:58:22.451Z,258.75
2024-02-23T08:59:22.465Z,253.12
2024-02-23T09:00:22.533Z,253.12
2024-02-23T09:01:24.211Z,253.12
2024-02-23T09:02:22.479Z,253.12
2024-02-23T09:03:22.481Z,258.75
2024-02-23T09:04:23.177Z,253.12
2024-02-23T09:05:22.907Z,247.50
2024-02-23T09:06:22.629Z,241.88
2024-02-23T09:07:22.733Z,247.50
2024-02-23T09:08:22.404Z,253.12
2024-02-23T09:09:22.415Z,253.12
2024-02-23T09:10:22.440Z,258.75
2024-02-23T09:11:22.451Z,258.75
2024-02-23T09:12:22.633Z,258.75
2024-02-23T09:13:22.363Z,258.75
2024-02-23T09:14:22.500Z,264.38
2024-02-23T09:15:23.202Z,264.38
2024-02-23T09:16:22.317Z,264.38
2024-02-23T09:17:22.280Z,258.75
2024-02-23T09:18:23.052Z,253.12
2024-02-23T09:19:22.609Z,253.12
2024-02-23T09:20:22.308Z,258.75
2024-02-23T09:21:22.396Z,264.38
2024-02-23T09:22:22.228Z,270.00
2024-02-23T09:23:22.318Z,270.00
2024-02-23T09:24:23.113Z,264.38
2024-02-23T09:25:22.427Z,258.75
2024-02-23T09:26:22.253Z,264.38
2024-02-23T09:27:22.833Z,270.00
2024-02-23T09:28:22.256Z,275.62
2024-02-23T09:29:22.332Z,264.38
2024-02-23T09:30:22.144Z,258.75
2024-02-23T09:31:22.114Z,264.38
2024-02-23T09:32:22.175Z,258.75
2024-02-23T09:33:22.171Z,247.50
2024-02-23T09:34:22.275Z,253.12
2024-02-23T09:35:22.128Z,253.12
2024-02-23T09:36:22.682Z,241.88
2024-02-23T09:37:22.529Z,236.25
2024-02-23T09:38:22.523Z,236.25
2024-02-23T09:39:22.015Z,241.88
2024-02-23T09:40:22.264Z,236.25
2024-02-23T09:41:22.066Z,236.25
2024-02-23T09:42:22.188Z,225.00
2024-02-23T09:43:23.129Z,219.38
2024-02-23T09:44:22.168Z,213.75
2024-02-23T09:45:22.114Z,208.12
2024-02-23T09:46:22.171Z,208.12
2024-02-23T09:47:26.614Z,202.50
2024-02-23T09:48:22.103Z,202.50
2024-02-23T09:49:23.005Z,196.88
2024-02-23T09:50:22.104Z,191.25
2024-02-23T09:51:21.877Z,196.88
2024-02-23T09:52:21.938Z,196.88
2024-02-23T09:53:22.770Z,196.88
2024-02-23T09:54:22.034Z,191.25
2024-02-23T09:56:39.805Z,185.62
2024-02-23T09:57:40.572Z,191.25
2024-02-23T09:58:39.536Z,196.88
2024-02-23T09:59:40.121Z,208.12
2024-02-23T10:00:39.610Z,219.38
2024-02-23T10:01:40.035Z,219.38
2024-02-23T10:02:39.516Z,230.62
2024-02-23T10:03:39.531Z,241.88
2024-02-23T10:04:39.508Z,258.75
2024-02-23T10:05:42.310Z,281.25
2024-02-23T10:06:40.573Z,298.12
2024-02-23T10:07:39.462Z,298.12
2024-02-23T10:08:39.475Z,286.88
2024-02-23T10:09:39.568Z,270.00
2024-02-23T10:10:40.105Z,264.38
2024-02-23T10:11:39.424Z,253.12
2024-02-23T10:12:39.417Z,247.50
2024-02-23T10:13:39.460Z,253.12
2024-02-23T10:14:39.496Z,258.75
2024-02-23T10:15:41.559Z,258.75
2024-02-23T10:16:39.394Z,264.38
2024-02-23T10:17:39.985Z,264.38
2024-02-23T10:18:39.540Z,270.00
2024-02-23T10:19:39.985Z,281.25
2024-02-23T10:20:39.528Z,286.88
2024-02-23T10:21:39.330Z,292.50
2024-02-23T10:22:40.087Z,292.50
2024-02-23T10:23:39.357Z,286.88
2024-02-23T10:24:39.247Z,281.25
2024-02-23T10:25:39.291Z,281.25
2024-02-23T10:26:39.286Z,281.25
2024-02-23T10:27:39.359Z,281.25
2024-02-23T10:28:40.090Z,298.12
2024-02-23T10:29:39.350Z,298.12
2024-02-23T10:30:39.316Z,292.50
2024-02-23T10:31:39.202Z,292.50
2024-02-23T10:32:39.216Z,298.12
2024-02-23T10:33:39.293Z,298.12
2024-02-23T10:34:40.233Z,286.88
2024-02-23T10:35:40.060Z,281.25
2024-02-23T10:36:40.175Z,286.88
2024-02-23T10:37:39.056Z,298.12
2024-02-23T10:38:40.469Z,303.75
2024-02-23T10:39:39.150Z,292.50
2024-02-23T10:40:39.476Z,281.25
2024-02-23T10:41:39.351Z,270.00
2024-02-23T10:42:39.044Z,264.38
2024-02-23T10:43:39.048Z,270.00
2024-02-23T10:44:39.363Z,286.88
2024-02-23T10:45:39.762Z,292.50
2024-02-23T10:46:39.203Z,298.12
2024-02-23T10:47:39.038Z,303.75
2024-02-23T10:48:39.253Z,309.38
2024-02-23T10:49:39.069Z,309.38
2024-02-23T10:50:38.957Z,303.75
2024-02-23T10:51:40.035Z,303.75
2024-02-23T10:52:38.993Z,309.38
2024-02-23T10:53:39.069Z,309.38
2024-02-23T10:54:39.832Z,303.75
2024-02-23T10:55:39.928Z,303.75
2024-02-23T10:56:39.050Z,303.75
2024-02-23T10:57:40.494Z,298.12
2024-02-23T10:58:38.856Z,303.75
2024-02-23T10:59:38.949Z,309.38
2024-02-23T11:00:39.752Z,315.00
2024-02-23T11:01:38.924Z,315.00
2024-02-23T11:02:38.881Z,309.38
2024-02-23T11:03:38.829Z,309.38
2024-02-23T11:04:39.086Z,309.38
2024-02-23T11:05:39.161Z,315.00
2024-02-23T11:06:39.077Z,309.38
2024-02-23T11:07:38.862Z,309.38
2024-02-23T11:08:38.896Z,309.38
2024-02-23T11:09:38.795Z,309.38
2024-02-23T11:10:39.473Z,303.75
2024-02-23T11:11:38.895Z,309.38
2024-02-23T11:12:38.701Z,320.62
2024-02-23T11:13:39.053Z,320.62
2024-02-23T11:14:39.111Z,315.00
2024-02-23T11:15:39.035Z,309.38
2024-02-23T11:16:38.802Z,303.75
2024-02-23T11:17:38.781Z,303.75
2024-02-23T11:18:38.681Z,303.75
2024-02-23T11:19:39.024Z,303.75
2024-02-23T11:20:38.890Z,303.75
2024-02-23T11:21:38.732Z,298.12
2024-02-23T11:22:40.028Z,303.75
2024-02-23T11:23:38.733Z,303.75
2024-02-23T11:24:38.572Z,303.75
2024-02-23T11:25:38.618Z,298.12
2024-02-23T11:26:39.143Z,303.75
2024-02-23T11:27:38.686Z,303.75
2024-02-23T11:28:38.979Z,309.38
2024-02-23T11:29:38.575Z,309.38
2024-02-23T11:30:40.556Z,303.75
2024-02-23T11:31:38.524Z,303.75
2024-02-23T11:32:38.536Z,303.75
2024-02-23T11:33:40.118Z,303.75
2024-02-23T11:34:39.624Z,303.75
2024-02-23T11:35:38.537Z,303.75
2024-02-23T11:36:39.033Z,309.38
2024-02-23T11:37:38.475Z,309.38
2024-02-23T11:38:38.546Z,309.38
2024-02-23T11:39:39.244Z,315.00
2024-02-23T11:40:38.435Z,315.00
2024-02-23T11:41:39.640Z,315.00
2024-02-23T11:42:38.691Z,303.75
2024-02-23T11:43:38.423Z,298.12
2024-02-23T11:44:38.524Z,292.50
2024-02-23T11:45:38.375Z,286.88
2024-02-23T11:46:38.399Z,281.25
2024-02-23T11:47:38.707Z,286.88
2024-02-23T11:48:38.533Z,281.25
2024-02-23T11:49:38.310Z,281.25
2024-02-23T11:50:38.650Z,281.25
2024-02-23T11:51:38.502Z,281.25
2024-02-23T11:52:39.055Z,286.88
2024-02-23T11:53:38.276Z,292.50
2024-02-23T11:54:39.040Z,292.50
2024-02-23T11:55:39.502Z,298.12
2024-02-23T11:56:38.391Z,298.12
2024-02-23T11:57:46.656Z,303.75
2024-02-23T11:58:38.278Z,303.75
2024-02-23T11:59:38.278Z,303.75
2024-02-23T12:00:38.254Z,298.12
2024-02-23T12:01:38.259Z,292.50
2024-02-23T12:02:38.210Z,286.88
2024-02-23T12:03:38.192Z,281.25
2024-02-23T12:04:39.030Z,286.88
2024-02-23T12:05:38.354Z,298.12
2024-02-23T12:06:38.135Z,298.12
2024-02-23T12:07:40.836Z,286.88
2024-02-23T12:08:38.595Z,286.88
2024-02-23T12:09:38.106Z,292.50
2024-02-23T12:10:38.135Z,303.75
2024-02-23T12:11:38.139Z,309.38
2024-02-23T12:12:38.081Z,303.75
2024-02-23T12:13:38.094Z,303.75
2024-02-23T12:14:39.625Z,303.75
2024-02-23T12:15:38.232Z,298.12
2024-02-23T12:16:38.107Z,292.50
2024-02-23T12:17:38.141Z,292.50
2024-02-23T12:18:38.070Z,286.88
2024-02-23T12:19:38.036Z,275.62
2024-02-23T12:20:38.262Z,264.38
2024-02-23T12:21:38.940Z,258.75
2024-02-23T12:22:37.955Z,264.38
2024-02-23T12:23:38.025Z,270.00
2024-02-23T12:24:37.988Z,275.62
2024-02-23T12:25:39.379Z,281.25
2024-02-23T12:26:37.997Z,286.88
2024-02-23T12:27:37.976Z,292.50
2024-02-23T12:28:37.901Z,292.50
2024-02-23T12:29:37.998Z,286.88
2024-02-23T12:30:37.907Z,286.88
2024-02-23T12:31:38.612Z,292.50
2024-02-23T12:32:37.939Z,292.50
2024-02-23T12:33:38.744Z,292.50
2024-02-23T12:34:37.949Z,298.12
2024-02-23T12:35:38.166Z,309.38
2024-02-23T12:36:37.877Z,303.75
2024-02-23T12:37:37.801Z,298.12
2024-02-23T12:38:38.104Z,286.88
2024-02-23T12:39:38.525Z,281.25
2024-02-23T12:40:37.798Z,275.62
2024-02-23T12:41:37.942Z,275.62
2024-02-23T12:42:37.761Z,270.00
2024-02-23T12:43:41.034Z,264.38
2024-02-23T12:44:37.868Z,264.38
2024-02-23T12:45:37.854Z,264.38
2024-02-23T12:46:37.845Z,275.62
2024-02-23T12:47:37.897Z,292.50
2024-02-23T12:48:37.804Z,298.12
2024-02-23T12:49:37.767Z,292.50
2024-02-23T12:50:37.694Z,281.25
2024-02-23T12:51:37.736Z,275.62
2024-02-23T12:52:37.693Z,275.62
2024-02-23T12:53:37.730Z,275.62
2024-02-23T12:54:37.700Z,275.62
2024-02-23T12:55:37.680Z,270.00